createdAt,value
2018-11-06T00:01:04.484Z,9.33
2018-11-06T00:02:19.020Z,9.36
2018-11-06T00:03:32.835Z,9.31
2018-11-06T00:04:46.367Z,9.27
2018-11-06T00:06:00.159Z,9.29
2018-11-06T00:07:14.416Z,9.39
2018-11-06T00:08:28.945Z,9.39
2018-11-06T00:09:42.508Z,9.33
2018-11-06T00:10:56.053Z,9.39
2018-11-06T00:12:24.990Z,9.42
2018-11-06T00:13:39.292Z,9.36
2018-11-06T00:14:53.008Z,9.37
2018-11-06T00:16:07.057Z,9.36
2018-11-06T00:17:21.108Z,9.29
2018-11-06T00:18:35.117Z,9.19
2018-11-06T00:19:48.988Z,9.16
2018-11-06T00:21:03.558Z,9.13
2018-11-06T00:22:17.121Z,9.03
2018-11-06T00:23:31.131Z,9.03
2018-11-06T00:24:45.379Z,9.05
2018-11-06T00:25:59.423Z,9
2018-11-06T00:27:13.747Z,9.13
2018-11-06T00:28:27.808Z,9.11
2018-11-06T00:29:41.840Z,9.08
2018-11-06T00:30:55.653Z,8.99
2018-11-06T00:32:09.040Z,8.93
2018-11-06T00:33:23.374Z,8.97
2018-11-06T00:34:37.657Z,8.92
2018-11-06T00:35:51.907Z,8.95
2018-11-06T00:37:05.499Z,8.95
2018-11-06T00:38:19.069Z,8.99
2018-11-06T00:39:33.400Z,9.02
2018-11-06T00:40:47.189Z,9.02
2018-11-06T00:42:00.725Z,9.13
2018-11-06T00:43:15.008Z,9.21
2018-11-06T00:44:29.042Z,9.24
2018-11-06T00:45:43.332Z,9.19
2018-11-06T00:46:57.374Z,9.02
2018-11-06T00:48:11.804Z,9.02
2018-11-06T00:49:26.112Z,8.86
2018-11-06T00:50:39.680Z,8.95
2018-11-06T00:51:54.144Z,8.84
2018-11-06T00:53:07.697Z,8.84
2018-11-06T00:54:21.970Z,8.77
2018-11-06T00:55:35.831Z,8.78
2018-11-06T00:56:49.669Z,8.61
2018-11-06T00:58:03.568Z,8.64
2018-11-06T00:59:17.802Z,8.64
2018-11-06T01:02:00.061Z,8.59
2018-11-06T01:03:13.635Z,8.6
2018-11-06T01:04:27.967Z,8.53
2018-11-06T01:05:41.989Z,8.53
2018-11-06T01:06:55.766Z,8.5
2018-11-06T01:08:09.594Z,8.46
2018-11-06T01:09:23.911Z,8.42
2018-11-06T01:22:00.012Z,8.78
2018-11-06T01:23:14.570Z,8.95
2018-11-06T01:24:28.381Z,9.12
2018-11-06T01:25:42.660Z,9.18
2018-11-06T01:26:56.543Z,9.27
2018-11-06T01:28:10.120Z,9.37
2018-11-06T01:29:23.720Z,9.44
2018-11-06T01:30:37.770Z,9.47
2018-11-06T01:31:51.350Z,9.47
2018-11-06T01:33:05.359Z,9.36
2018-11-06T01:34:19.853Z,9.33
2018-11-06T01:35:34.108Z,9.34
2018-11-06T01:36:47.436Z,9.47
2018-11-06T01:38:01.501Z,9.48
2018-11-06T01:39:15.313Z,9.54
2018-11-06T01:40:29.378Z,9.52
2018-11-06T01:41:44.152Z,9.59
2018-11-06T01:42:58.406Z,9.55
2018-11-06T01:44:12.654Z,9.56
2018-11-06T01:45:26.496Z,9.55
2018-11-06T01:46:40.528Z,9.49
2018-11-06T01:47:54.851Z,9.55
2018-11-06T01:49:08.916Z,9.52
2018-11-06T01:50:22.906Z,9.64
2018-11-06T01:51:36.976Z,9.67
2018-11-06T01:52:50.776Z,9.7
2018-11-06T01:54:05.112Z,9.7
2018-11-06T01:55:18.902Z,9.56
2018-11-06T01:56:47.575Z,9.31
2018-11-06T01:58:01.600Z,9.33
2018-11-06T01:59:15.431Z,9.21
2018-11-06T02:00:29.752Z,9.03
2018-11-06T02:01:43.331Z,8.99
2018-11-06T02:03:00.150Z,9
2018-11-06T02:04:14.211Z,8.87
2018-11-06T02:05:28.014Z,8.86
2018-11-06T02:06:42.561Z,9
2018-11-06T02:07:56.833Z,9.02
2018-11-06T02:09:11.140Z,8.97
2018-11-06T02:10:25.471Z,8.95
2018-11-06T02:11:39.803Z,8.86
2018-11-06T02:12:57.911Z,8.9
2018-11-06T02:14:12.176Z,8.93
2018-11-06T02:15:26.197Z,8.9
2018-11-06T02:16:40.195Z,8.95
2018-11-06T02:17:54.465Z,8.92
2018-11-06T02:19:08.510Z,8.9
2018-11-06T02:20:22.929Z,8.81
2018-11-06T02:21:37.030Z,8.77
2018-11-06T02:22:51.076Z,8.87
2018-11-06T02:24:05.577Z,8.77
2018-11-06T02:25:19.658Z,8.75
2018-11-06T02:26:33.524Z,8.77
2018-11-06T02:27:48.009Z,8.77
2018-11-06T02:29:02.300Z,8.79
2018-11-06T02:30:16.148Z,9.09
2018-11-06T02:31:29.713Z,9.11
2018-11-06T02:32:43.953Z,9.31
2018-11-06T02:33:57.780Z,9.34
2018-11-06T02:35:12.083Z,9.39
2018-11-06T02:36:26.634Z,9.4
2018-11-06T02:37:41.131Z,9.3
2018-11-06T02:38:55.592Z,9.26
2018-11-06T02:40:09.848Z,9.34
2018-11-06T02:41:24.148Z,9.27
2018-11-06T02:42:37.728Z,9.27
2018-11-06T02:43:52.025Z,9.3
2018-11-06T02:45:06.075Z,9.19
2018-11-06T02:46:20.111Z,9.26
2018-11-06T02:47:33.886Z,9.18
2018-11-06T02:48:48.250Z,9.19
2018-11-06T02:50:02.568Z,9.26
2018-11-06T02:51:15.682Z,9.24
2018-11-06T02:52:29.956Z,9.19
2018-11-06T02:53:44.286Z,9.09
2018-11-06T02:54:58.320Z,8.86
2018-11-06T02:56:12.871Z,8.84
2018-11-06T02:57:27.171Z,8.75
2018-11-06T02:58:41.645Z,8.81
2018-11-06T02:59:55.781Z,8.82
2018-11-06T03:01:09.850Z,8.93
2018-11-06T03:02:28.140Z,9.11
2018-11-06T03:03:41.935Z,9
2018-11-06T03:04:56.188Z,9.16
2018-11-06T03:06:10.179Z,9.19
2018-11-06T03:07:24.001Z,9.03
2018-11-06T03:08:38.024Z,8.96
2018-11-06T03:09:51.832Z,8.93
2018-11-06T03:11:05.895Z,8.86
2018-11-06T03:12:19.919Z,8.75
2018-11-06T03:13:33.959Z,8.72
2018-11-06T03:14:48.220Z,8.77
2018-11-06T03:16:02.497Z,8.81
2018-11-06T03:17:16.777Z,8.79
2018-11-06T03:18:30.588Z,8.97
2018-11-06T03:19:44.876Z,8.99
2018-11-06T03:20:59.151Z,9.03
2018-11-06T03:22:13.236Z,8.99
2018-11-06T03:23:27.254Z,9
2018-11-06T03:24:41.021Z,9.11
2018-11-06T03:25:55.597Z,9.16
2018-11-06T03:27:10.930Z,9.19
2018-11-06T03:28:25.358Z,9.13
2018-11-06T03:29:39.652Z,9.16
2018-11-06T03:30:53.435Z,9.03
2018-11-06T03:32:07.624Z,9.03
2018-11-06T03:33:21.833Z,9.03
2018-11-06T03:34:35.630Z,9.02
2018-11-06T03:35:49.481Z,8.92
2018-11-06T03:37:03.475Z,8.93
2018-11-06T03:38:32.490Z,8.96
2018-11-06T03:39:46.543Z,9.08
2018-11-06T03:41:00.575Z,9.08
2018-11-06T03:42:14.370Z,9.03
2018-11-06T03:43:28.429Z,9.02
2018-11-06T03:44:41.976Z,8.95
2018-11-06T03:45:56.245Z,9.08
2018-11-06T03:47:10.086Z,9.08
2018-11-06T03:48:24.533Z,9.08
2018-11-06T03:49:38.541Z,9.09
2018-11-06T03:50:51.862Z,9
2018-11-06T03:52:06.254Z,9.05
2018-11-06T03:53:19.564Z,9.03
2018-11-06T03:54:33.385Z,9.03
2018-11-06T03:55:47.266Z,9.11
2018-11-06T03:57:01.101Z,9.03
2018-11-06T03:58:15.416Z,9.18
2018-11-06T03:59:29.690Z,9
2018-11-06T04:00:43.715Z,9.02
2018-11-06T04:01:57.989Z,9.03
2018-11-06T04:03:12.681Z,9
2018-11-06T04:04:26.822Z,9.03
2018-11-06T04:05:40.730Z,8.96
2018-11-06T04:06:54.983Z,9.05
2018-11-06T04:08:09.286Z,8.97
2018-11-06T04:09:37.754Z,8.92
2018-11-06T04:10:52.042Z,8.92
2018-11-06T04:12:06.064Z,8.9
2018-11-06T04:13:20.145Z,8.96
2018-11-06T04:14:33.993Z,8.95
2018-11-06T04:15:48.010Z,8.95
2018-11-06T04:17:02.502Z,8.9
2018-11-06T04:18:16.273Z,8.77
2018-11-06T04:19:30.371Z,8.74
2018-11-06T04:20:44.376Z,8.79
2018-11-06T04:21:58.151Z,8.72
2018-11-06T04:23:12.826Z,8.81
2018-11-06T04:24:27.165Z,8.74
2018-11-06T04:25:41.020Z,8.78
2018-11-06T04:26:55.117Z,8.69
2018-11-06T04:28:09.222Z,8.77
2018-11-06T04:29:23.351Z,8.63
2018-11-06T04:30:37.615Z,8.63
2018-11-06T04:31:51.440Z,8.63
2018-11-06T04:33:05.693Z,8.66
2018-11-06T04:34:19.574Z,8.77
2018-11-06T04:35:33.421Z,8.86
2018-11-06T04:36:47.478Z,8.82
2018-11-06T04:38:01.873Z,8.86
2018-11-06T04:39:15.458Z,8.95
2018-11-06T04:40:29.760Z,8.93
2018-11-06T04:41:43.819Z,8.9
2018-11-06T04:42:58.383Z,8.9
2018-11-06T04:44:12.667Z,8.78
2018-11-06T04:45:26.689Z,8.82
2018-11-06T04:46:40.956Z,8.81
2018-11-06T04:47:55.342Z,8.84
2018-11-06T04:49:09.083Z,8.79
2018-11-06T04:50:24.174Z,8.77
2018-11-06T04:51:39.323Z,8.93
2018-11-06T04:52:53.599Z,8.78
2018-11-06T04:54:08.452Z,8.87
2018-11-06T04:55:21.996Z,8.79
2018-11-06T04:56:35.331Z,8.89
2018-11-06T04:57:49.334Z,8.93
2018-11-06T04:59:03.883Z,8.92
2018-11-06T05:00:17.909Z,8.93
2018-11-06T05:01:31.727Z,9
2018-11-06T05:02:46.070Z,8.95
2018-11-06T05:04:00.583Z,8.92
2018-11-06T05:05:14.660Z,8.81
2018-11-06T05:06:29.337Z,8.87
2018-11-06T05:07:43.453Z,8.81
2018-11-06T05:08:57.347Z,8.81
2018-11-06T05:10:10.942Z,8.95
2018-11-06T05:11:25.198Z,8.86
2018-11-06T05:12:39.358Z,9.03
2018-11-06T05:13:53.573Z,8.96
2018-11-06T05:15:07.495Z,8.99
2018-11-06T05:16:21.799Z,9.02
2018-11-06T05:17:36.271Z,9.05
2018-11-06T05:18:50.310Z,9
2018-11-06T05:20:04.590Z,9.03
2018-11-06T05:21:18.170Z,8.92
2018-11-06T05:22:32.447Z,8.95
2018-11-06T05:23:46.495Z,8.84
2018-11-06T05:25:00.630Z,8.89
2018-11-06T05:26:14.649Z,8.82
2018-11-06T05:27:29.091Z,8.79
2018-11-06T05:28:43.685Z,8.77
2018-11-06T05:29:57.724Z,8.79
2018-11-06T05:31:11.764Z,8.82
2018-11-06T05:32:25.576Z,8.79
2018-11-06T05:33:39.639Z,8.72
2018-11-06T05:34:54.276Z,8.72
2018-11-06T05:36:08.450Z,8.77
2018-11-06T05:37:22.940Z,8.79
2018-11-06T05:38:36.736Z,8.87
2018-11-06T05:39:50.532Z,8.86
2018-11-06T05:41:04.560Z,8.86
2018-11-06T05:42:18.090Z,8.81
2018-11-06T05:43:32.115Z,8.81
2018-11-06T05:44:46.038Z,8.86
2018-11-06T05:46:00.065Z,8.79
2018-11-06T05:47:14.562Z,8.79
2018-11-06T05:48:28.579Z,8.75
2018-11-06T05:49:43.139Z,8.69
2018-11-06T05:51:00.977Z,8.74
2018-11-06T05:52:14.809Z,8.75
2018-11-06T05:53:28.764Z,8.75
2018-11-06T05:54:43.165Z,8.64
2018-11-06T05:55:57.801Z,8.64
2018-11-06T05:57:12.341Z,8.64
2018-11-06T05:58:25.894Z,8.56
2018-11-06T05:59:40.371Z,8.54
2018-11-06T06:00:54.659Z,8.63
2018-11-06T06:02:08.718Z,8.59
2018-11-06T06:03:22.575Z,8.59
2018-11-06T06:04:36.173Z,8.64
2018-11-06T06:05:50.095Z,8.64
2018-11-06T06:07:03.911Z,8.72
2018-11-06T06:08:17.534Z,8.75
2018-11-06T06:09:31.666Z,8.64
2018-11-06T06:10:47.208Z,8.77
2018-11-06T06:12:01.598Z,8.75
2018-11-06T06:13:15.666Z,8.77
2018-11-06T06:14:29.980Z,8.86
2018-11-06T06:15:43.754Z,8.74
2018-11-06T06:16:57.768Z,8.75
2018-11-06T06:18:27.379Z,8.86
2018-11-06T06:19:40.957Z,8.75
2018-11-06T06:20:55.486Z,8.74
2018-11-06T06:22:08.814Z,8.86
2018-11-06T06:23:22.642Z,8.81
2018-11-06T06:24:35.995Z,8.92
2018-11-06T06:25:49.793Z,8.97
2018-11-06T06:27:03.629Z,8.93
2018-11-06T06:28:32.787Z,8.93
2018-11-06T06:29:47.649Z,8.89
2018-11-06T06:31:02.456Z,8.95
2018-11-06T06:32:16.496Z,9.02
2018-11-06T06:33:31.025Z,9.13
2018-11-06T06:34:45.420Z,9.03
2018-11-06T06:35:59.879Z,9.03
2018-11-06T06:37:14.093Z,9.03
2018-11-06T06:38:28.232Z,9.12
2018-11-06T06:39:42.149Z,9.12
2018-11-06T06:40:56.736Z,9.05
2018-11-06T06:42:12.035Z,9.03
2018-11-06T06:43:26.134Z,9.09
2018-11-06T06:44:40.427Z,9.12
2018-11-06T06:45:54.230Z,9.05
2018-11-06T06:47:08.076Z,9.08
2018-11-06T06:48:22.150Z,9.02
2018-11-06T06:49:36.010Z,9.18
2018-11-06T06:50:49.457Z,9.19
2018-11-06T06:52:02.827Z,9.24
2018-11-06T06:53:16.842Z,9.11
2018-11-06T06:54:31.534Z,9.19
2018-11-06T06:55:46.016Z,9.19
2018-11-06T06:57:00.265Z,9.16
2018-11-06T06:58:14.569Z,9.03
2018-11-06T06:59:28.627Z,9.03
2018-11-06T07:00:43.065Z,9.08
2018-11-06T07:01:56.766Z,9.05
2018-11-06T07:03:10.808Z,9.08
2018-11-06T07:04:24.867Z,9.12
2018-11-06T07:05:38.893Z,9.13
2018-11-06T07:06:52.937Z,9.16
2018-11-06T07:08:07.855Z,9.19
2018-11-06T07:11:23.076Z,9.18
2018-11-06T07:12:37.601Z,9.19
2018-11-06T07:13:52.283Z,9.29
2018-11-06T07:15:05.659Z,9.29
2018-11-06T07:16:19.982Z,9.29
2018-11-06T07:17:34.020Z,9.37
2018-11-06T07:18:49.039Z,9.36
2018-11-06T07:20:17.021Z,9.27
2018-11-06T07:21:30.901Z,9.24
2018-11-06T07:22:45.414Z,9.34
2018-11-06T07:23:59.333Z,9.36
2018-11-06T07:25:13.182Z,9.44
2018-11-06T07:26:41.906Z,9.44
2018-11-06T07:27:55.942Z,9.4
2018-11-06T07:29:09.275Z,9.4
2018-11-06T07:30:23.194Z,9.42
2018-11-06T07:31:37.284Z,9.49
2018-11-06T07:32:51.568Z,9.49
2018-11-06T07:34:05.645Z,9.47
2018-11-06T07:35:20.297Z,9.39
2018-11-06T07:36:34.662Z,9.37
2018-11-06T07:37:48.717Z,9.44
2018-11-06T07:39:17.667Z,9.42
2018-11-06T07:40:31.587Z,9.44
2018-11-06T07:43:14.761Z,9.48
2018-11-06T07:44:28.333Z,9.47
2018-11-06T07:45:42.475Z,9.51
2018-11-06T07:46:56.540Z,9.51
2018-11-06T07:48:25.361Z,9.66
2018-11-06T07:49:55.932Z,9.8
2018-11-06T07:51:25.531Z,9.91
2018-11-06T07:52:40.235Z,9.99
2018-11-06T07:53:53.809Z,10.03
2018-11-06T07:55:07.449Z,10.09
2018-11-06T07:56:21.688Z,10.2
2018-11-06T07:57:35.190Z,10.2
2018-11-06T07:58:49.744Z,10.21
2018-11-06T08:00:03.842Z,10.23
2018-11-06T08:01:18.063Z,10.25
2018-11-06T08:02:32.167Z,10.24
2018-11-06T08:03:45.959Z,10.27
2018-11-06T08:04:59.727Z,10.2
2018-11-06T08:06:13.586Z,10.24
2018-11-06T08:07:27.894Z,10.36
2018-11-06T08:08:42.161Z,10.41
2018-11-06T08:11:25.190Z,10.36
2018-11-06T08:12:39.276Z,10.42
2018-11-06T08:13:53.084Z,10.38
2018-11-06T08:15:07.199Z,10.42
2018-11-06T08:16:21.168Z,10.39
2018-11-06T08:17:35.243Z,10.49
2018-11-06T08:18:49.333Z,10.43
2018-11-06T08:20:03.948Z,10.34
2018-11-06T08:21:18.009Z,10.42
2018-11-06T08:22:31.908Z,10.42
2018-11-06T08:23:46.124Z,10.39
2018-11-06T08:25:00.099Z,10.31
2018-11-06T08:26:13.722Z,10.27
2018-11-06T08:27:28.276Z,10.36
2018-11-06T08:28:42.769Z,10.36
2018-11-06T08:29:57.172Z,10.43
2018-11-06T08:31:12.147Z,10.43
2018-11-06T08:32:27.079Z,10.57
2018-11-06T08:33:42.193Z,10.51
2018-11-06T08:34:56.466Z,10.55
2018-11-06T08:36:10.554Z,10.65
2018-11-06T08:37:24.665Z,10.68
2018-11-06T08:38:38.696Z,10.75
2018-11-06T08:39:53.107Z,10.79
2018-11-06T08:41:06.463Z,10.84
2018-11-06T08:42:20.597Z,10.79
2018-11-06T08:43:35.527Z,10.9
2018-11-06T08:44:49.575Z,10.92
2018-11-06T08:46:03.629Z,10.95
2018-11-06T08:47:17.461Z,11.05
2018-11-06T08:48:30.776Z,11
2018-11-06T08:49:44.567Z,11.1
2018-11-06T08:50:59.113Z,11
2018-11-06T08:52:12.700Z,11.08
2018-11-06T08:53:26.771Z,11.08
2018-11-06T08:54:40.828Z,11.12
2018-11-06T08:55:54.740Z,11.05
2018-11-06T08:57:08.896Z,11.16
2018-11-06T08:58:23.013Z,11.33
2018-11-06T08:59:37.317Z,11.25
2018-11-06T09:00:51.333Z,11.37
2018-11-06T09:02:05.753Z,11.53
2018-11-06T09:03:19.805Z,11.51
2018-11-06T09:04:32.988Z,11.56
2018-11-06T09:05:47.183Z,11.52
2018-11-06T09:07:01.733Z,11.53
2018-11-06T09:08:15.366Z,11.58
2018-11-06T09:09:29.698Z,11.71
2018-11-06T09:10:43.290Z,11.8
2018-11-06T09:11:57.849Z,11.77
2018-11-06T09:13:12.408Z,11.76
2018-11-06T09:14:26.286Z,11.85
2018-11-06T09:15:39.908Z,11.95
2018-11-06T09:16:54.169Z,11.89
2018-11-06T09:18:08.757Z,11.99
2018-11-06T09:19:37.326Z,12
2018-11-06T09:20:51.631Z,12.02
2018-11-06T09:22:05.450Z,12.02
2018-11-06T09:23:19.431Z,11.99
2018-11-06T09:24:33.496Z,11.99
2018-11-06T09:25:46.853Z,12.03
2018-11-06T09:27:00.913Z,11.99
2018-11-06T09:28:14.805Z,12
2018-11-06T09:29:46.531Z,11.91
2018-11-06T09:31:00.589Z,11.91
2018-11-06T09:32:15.343Z,12.02
2018-11-06T09:33:29.415Z,12.02
2018-11-06T09:34:43.115Z,12.08
2018-11-06T09:35:57.163Z,12.05
2018-11-06T09:37:11.068Z,12.08
2018-11-06T09:38:40.038Z,12.2
2018-11-06T09:39:53.913Z,12.25
2018-11-06T09:41:07.876Z,12.28
2018-11-06T09:42:22.114Z,12.39
2018-11-06T09:43:35.908Z,12.4
2018-11-06T09:44:49.550Z,12.57
2018-11-06T09:46:03.598Z,12.55
2018-11-06T09:47:17.648Z,12.7
2018-11-06T09:48:37.224Z,12.69
2018-11-06T09:49:51.017Z,12.8
2018-11-06T09:51:05.073Z,12.87
2018-11-06T09:52:19.316Z,12.87
2018-11-06T09:53:32.897Z,12.98
2018-11-06T09:54:45.999Z,12.84
2018-11-06T09:56:00.504Z,12.84
2018-11-06T09:57:14.270Z,12.83
2018-11-06T09:58:36.181Z,12.99
2018-11-06T09:59:50.647Z,13.12
2018-11-06T10:01:04.527Z,13.19
2018-11-06T10:02:18.378Z,13.27
2018-11-06T10:03:32.186Z,13.42
2018-11-06T10:04:46.668Z,13.54
2018-11-06T10:06:01.031Z,13.49
2018-11-06T10:07:17.763Z,13.68
2018-11-06T10:08:46.341Z,13.75
2018-11-06T10:10:00.368Z,13.7
2018-11-06T10:11:13.942Z,13.86
2018-11-06T10:12:28.034Z,13.79
2018-11-06T10:13:41.844Z,13.8
2018-11-06T10:14:55.850Z,13.95
2018-11-06T10:16:09.651Z,13.83
2018-11-06T10:17:23.000Z,13.79
2018-11-06T10:18:37.053Z,13.79
2018-11-06T10:19:51.141Z,13.78
2018-11-06T10:21:05.009Z,13.8
2018-11-06T10:22:19.333Z,13.8
2018-11-06T10:23:33.637Z,13.75
2018-11-06T10:24:47.653Z,13.7
2018-11-06T10:26:01.466Z,13.85
2018-11-06T10:27:15.766Z,13.83
2018-11-06T10:28:29.562Z,14.04
2018-11-06T10:29:42.943Z,14.08
2018-11-06T10:30:57.616Z,14.04
2018-11-06T10:32:11.992Z,14.12
2018-11-06T10:33:25.805Z,14.07
2018-11-06T10:34:39.621Z,14.11
2018-11-06T10:35:53.665Z,14.07
2018-11-06T10:37:07.474Z,14.07
2018-11-06T10:38:21.963Z,14.08
2018-11-06T10:39:36.020Z,13.95
2018-11-06T10:40:50.288Z,14.08
2018-11-06T10:42:04.127Z,14.03
2018-11-06T10:43:17.903Z,14
2018-11-06T10:44:31.687Z,14
2018-11-06T10:45:45.892Z,14.07
2018-11-06T10:46:59.928Z,14.16
2018-11-06T10:48:13.786Z,14.11
2018-11-06T10:49:27.368Z,14.05
2018-11-06T10:50:41.166Z,14.05
2018-11-06T10:51:56.160Z,14.08
2018-11-06T10:53:10.326Z,14.11
2018-11-06T10:54:24.668Z,14.08
2018-11-06T10:55:38.011Z,14.18
2018-11-06T10:56:52.334Z,14.22
2018-11-06T10:58:06.401Z,14.16
2018-11-06T10:59:20.338Z,14.2
2018-11-06T11:00:34.903Z,14.22
2018-11-06T11:01:48.943Z,14.31
2018-11-06T11:03:02.715Z,14.37
2018-11-06T11:04:16.938Z,14.51
2018-11-06T11:05:31.329Z,14.52
2018-11-06T11:06:45.435Z,14.48
2018-11-06T11:07:59.713Z,14.53
2018-11-06T11:09:13.765Z,14.58
2018-11-06T11:10:28.049Z,14.61
2018-11-06T11:11:42.350Z,14.52
2018-11-06T11:12:56.741Z,14.67
2018-11-06T11:14:10.856Z,14.63
2018-11-06T11:15:24.589Z,14.53
2018-11-06T11:16:38.889Z,14.67
2018-11-06T11:17:52.471Z,14.66
2018-11-06T11:19:06.536Z,14.92
2018-11-06T11:20:21.294Z,14.93
2018-11-06T11:21:34.574Z,14.93
2018-11-06T11:22:48.932Z,14.96
2018-11-06T11:24:02.511Z,15
2018-11-06T11:25:16.633Z,15
2018-11-06T11:26:30.715Z,15.08
2018-11-06T11:27:45.021Z,14.99
2018-11-06T11:28:59.477Z,14.99
2018-11-06T11:30:12.799Z,14.92
2018-11-06T11:31:26.885Z,14.92
2018-11-06T11:32:40.445Z,15
2018-11-06T11:33:54.667Z,14.99
2018-11-06T11:35:08.772Z,14.97
2018-11-06T11:36:23.152Z,14.93
2018-11-06T11:37:42.551Z,15.02
2018-11-06T11:38:56.426Z,15.08
2018-11-06T11:40:25.467Z,15.1
2018-11-06T11:41:39.992Z,15.1
2018-11-06T11:42:54.032Z,15.14
2018-11-06T11:44:07.687Z,15.08
2018-11-06T11:45:36.838Z,15.07
2018-11-06T11:46:51.021Z,15.05
2018-11-06T11:48:05.100Z,15.18
2018-11-06T11:49:19.127Z,15.11
2018-11-06T11:50:33.158Z,15.17
2018-11-06T11:51:46.982Z,15.12
2018-11-06T11:53:01.280Z,15.27
2018-11-06T11:54:15.066Z,15.26
2018-11-06T11:55:29.399Z,15.32
2018-11-06T11:56:43.273Z,15.29
2018-11-06T11:57:57.319Z,15.39
2018-11-06T11:59:11.107Z,15.36
2018-11-06T12:00:40.314Z,15.47
2018-11-06T12:01:53.654Z,15.37
2018-11-06T12:03:07.522Z,15.45
2018-11-06T12:04:21.139Z,15.5
2018-11-06T12:05:50.538Z,15.59
2018-11-06T12:07:19.813Z,15.57
2018-11-06T12:08:34.052Z,15.62
2018-11-06T12:09:47.647Z,15.62
2018-11-06T12:11:02.124Z,15.67
2018-11-06T12:12:16.455Z,15.62
2018-11-06T12:15:14.409Z,15.65
2018-11-06T12:16:28.681Z,15.75
2018-11-06T12:17:42.753Z,15.62
2018-11-06T12:18:56.234Z,15.62
2018-11-06T12:20:09.808Z,15.57
2018-11-06T12:21:24.095Z,15.54
2018-11-06T12:22:37.907Z,15.75
2018-11-06T12:23:52.411Z,15.55
2018-11-06T12:25:07.109Z,15.76
2018-11-06T12:26:22.271Z,15.69
2018-11-06T12:27:36.311Z,15.6
2018-11-06T12:28:50.607Z,15.54
2018-11-06T12:30:05.167Z,15.57
2018-11-06T12:31:18.783Z,15.44
2018-11-06T12:32:32.995Z,15.43
2018-11-06T12:33:46.368Z,15.41
2018-11-06T12:35:00.392Z,15.39
2018-11-06T12:36:29.386Z,15.55
2018-11-06T12:37:58.386Z,15.43
2018-11-06T12:39:12.361Z,15.43
2018-11-06T12:40:26.150Z,15.55
2018-11-06T12:41:39.942Z,15.44
2018-11-06T12:42:54.152Z,15.51
2018-11-06T12:44:09.030Z,15.5
2018-11-06T12:45:22.643Z,15.54
2018-11-06T12:46:52.502Z,15.65
2018-11-06T12:48:06.813Z,15.7
2018-11-06T12:49:21.113Z,15.81
2018-11-06T12:50:34.960Z,15.83
2018-11-06T12:51:49.130Z,15.83
2018-11-06T12:53:03.166Z,15.85
2018-11-06T12:54:17.231Z,15.84
2018-11-06T12:55:31.588Z,15.75
2018-11-06T12:56:51.004Z,15.76
2018-11-06T12:58:05.327Z,15.7
2018-11-06T12:59:19.353Z,15.63
2018-11-06T13:00:33.898Z,15.55
2018-11-06T13:01:48.217Z,15.59
2018-11-06T13:03:02.053Z,15.59
2018-11-06T13:04:15.903Z,15.62
2018-11-06T13:05:30.199Z,15.59
2018-11-06T13:06:44.272Z,15.78
2018-11-06T13:07:58.393Z,15.73
2018-11-06T13:09:12.015Z,15.76
2018-11-06T13:10:26.032Z,15.8
2018-11-06T13:11:40.386Z,15.76
2018-11-06T13:12:54.928Z,15.72
2018-11-06T13:14:09.295Z,15.88
2018-11-06T13:15:24.803Z,15.84
2018-11-06T13:16:38.784Z,15.73
2018-11-06T13:17:53.063Z,15.76
2018-11-06T13:19:06.864Z,15.69
2018-11-06T13:20:20.920Z,15.51
2018-11-06T13:21:34.982Z,15.65
2018-11-06T13:22:48.556Z,15.57
2018-11-06T13:24:02.606Z,15.66
2018-11-06T13:25:16.529Z,15.57
2018-11-06T13:26:31.994Z,15.55
2018-11-06T13:27:46.902Z,15.62
2018-11-06T13:29:00.625Z,15.67
2018-11-06T13:30:14.890Z,15.67
2018-11-06T13:31:29.201Z,15.57
2018-11-06T13:32:43.523Z,15.7
2018-11-06T13:33:57.321Z,15.75
2018-11-06T13:35:11.120Z,15.76
2018-11-06T13:36:24.944Z,15.67
2018-11-06T13:37:38.759Z,15.76
2018-11-06T13:38:53.776Z,15.84
2018-11-06T13:40:07.373Z,15.83
2018-11-06T13:41:21.624Z,15.87
2018-11-06T13:42:36.330Z,15.78
2018-11-06T13:43:52.088Z,15.76
2018-11-06T13:45:07.596Z,15.78
2018-11-06T13:46:22.000Z,15.84
2018-11-06T13:47:36.579Z,15.81
2018-11-06T13:48:50.921Z,15.72
2018-11-06T13:50:05.017Z,15.8
2018-11-06T13:51:19.827Z,15.78
2018-11-06T13:52:34.188Z,15.81
2018-11-06T13:53:48.718Z,15.63
2018-11-06T13:55:02.073Z,15.66
2018-11-06T13:56:16.428Z,15.78
2018-11-06T13:57:30.979Z,15.8
2018-11-06T13:58:44.927Z,15.81
2018-11-06T13:59:59.017Z,15.73
2018-11-06T14:01:12.841Z,15.8
2018-11-06T14:02:27.188Z,15.7
2018-11-06T14:03:41.536Z,15.8
2018-11-06T14:04:55.573Z,15.78
2018-11-06T14:06:09.661Z,15.8
2018-11-06T14:07:23.548Z,15.8
2018-11-06T14:08:37.859Z,15.81
2018-11-06T14:09:52.202Z,15.76
2018-11-06T14:11:06.005Z,15.78
2018-11-06T14:12:19.567Z,15.85
2018-11-06T14:13:33.620Z,15.85
2018-11-06T14:14:47.238Z,15.8
2018-11-06T14:16:01.273Z,15.78
2018-11-06T14:17:14.942Z,15.85
2018-11-06T14:18:28.856Z,15.9
2018-11-06T14:19:42.962Z,15.96
2018-11-06T14:20:57.008Z,15.88
2018-11-06T14:22:11.760Z,15.9
2018-11-06T14:23:25.825Z,15.81
2018-11-06T14:24:39.708Z,15.88
2018-11-06T14:25:53.531Z,15.78
2018-11-06T14:27:07.968Z,15.94
2018-11-06T14:28:22.533Z,15.87
2018-11-06T14:29:36.780Z,15.9
2018-11-06T14:30:50.585Z,15.8
2018-11-06T14:32:04.833Z,15.87
2018-11-06T14:33:18.402Z,15.9
2018-11-06T14:34:32.959Z,15.84
2018-11-06T14:35:46.826Z,15.85
2018-11-06T14:37:01.513Z,15.84
2018-11-06T14:38:15.350Z,15.88
2018-11-06T14:39:28.940Z,15.78
2018-11-06T14:40:43.054Z,15.98
2018-11-06T14:41:57.123Z,15.91
2018-11-06T14:43:11.255Z,15.87
2018-11-06T14:44:25.107Z,15.83
2018-11-06T14:45:40.987Z,15.81
2018-11-06T14:46:55.087Z,15.94
2018-11-06T14:48:09.906Z,15.84
2018-11-06T14:49:24.846Z,15.81
2018-11-06T14:50:39.346Z,15.96
2018-11-06T14:51:52.903Z,15.83
2018-11-06T14:53:07.464Z,15.9
2018-11-06T14:54:21.327Z,15.85
2018-11-06T14:55:34.732Z,15.8
2018-11-06T14:56:48.572Z,15.83
2018-11-06T14:58:02.421Z,15.78
2018-11-06T14:59:17.098Z,15.72
2018-11-06T15:00:30.978Z,15.78
2018-11-06T15:01:45.149Z,15.78
2018-11-06T15:02:59.676Z,15.75
2018-11-06T15:04:13.493Z,15.84
2018-11-06T15:05:30.954Z,15.72
2018-11-06T15:06:45.245Z,15.76
2018-11-06T15:07:59.854Z,15.73
2018-11-06T15:09:13.657Z,15.78
2018-11-06T15:10:27.713Z,15.76
2018-11-06T15:11:42.138Z,15.78
2018-11-06T15:12:56.900Z,15.75
2018-11-06T15:14:11.182Z,15.81
2018-11-06T15:15:40.436Z,15.8
2018-11-06T15:16:54.300Z,15.75
2018-11-06T15:18:08.628Z,15.81
2018-11-06T15:19:22.486Z,15.78
2018-11-06T15:20:37.138Z,15.81
2018-11-06T15:21:50.451Z,15.83
2018-11-06T15:23:04.474Z,15.75
2018-11-06T15:24:18.792Z,15.7
2018-11-06T15:25:32.901Z,15.63
2018-11-06T15:26:47.229Z,15.62
2018-11-06T15:28:01.043Z,15.62
2018-11-06T15:29:15.094Z,15.6
2018-11-06T15:30:29.414Z,15.59
2018-11-06T15:31:43.523Z,15.62
2018-11-06T15:32:57.334Z,15.54
2018-11-06T15:34:11.395Z,15.57
2018-11-06T15:35:24.984Z,15.5
2018-11-06T15:36:39.038Z,15.44
2018-11-06T15:37:53.206Z,15.44
2018-11-06T15:39:07.496Z,15.41
2018-11-06T15:40:21.837Z,15.44
2018-11-06T15:41:36.018Z,15.3
2018-11-06T15:42:50.609Z,15.33
2018-11-06T15:44:04.228Z,15.3
2018-11-06T15:45:18.089Z,15.23
2018-11-06T15:46:31.913Z,15.22
2018-11-06T15:47:45.961Z,15.25
2018-11-06T15:49:00.299Z,15.17
2018-11-06T15:50:14.097Z,15.12
2018-11-06T15:51:28.404Z,15.14
2018-11-06T15:52:42.191Z,15.12
2018-11-06T15:53:56.234Z,15.14
2018-11-06T15:55:10.293Z,15.18
2018-11-06T15:56:24.348Z,15.14
2018-11-06T15:57:38.608Z,15.17
2018-11-06T15:58:52.741Z,15.11
2018-11-06T16:00:06.563Z,15.08
2018-11-06T16:01:20.825Z,15.07
2018-11-06T16:02:34.183Z,14.99
2018-11-06T16:03:47.775Z,15.08
2018-11-06T16:05:01.788Z,15.04
2018-11-06T16:06:15.395Z,14.97
2018-11-06T16:07:28.973Z,14.97
2018-11-06T16:08:42.780Z,14.96
2018-11-06T16:09:56.838Z,14.99
2018-11-06T16:11:10.638Z,14.99
2018-11-06T16:12:24.678Z,14.94
2018-11-06T16:13:38.754Z,14.94
2018-11-06T16:15:07.679Z,15.02
2018-11-06T16:16:21.681Z,14.97
2018-11-06T16:17:35.731Z,14.99
2018-11-06T16:19:04.563Z,14.87
2018-11-06T16:20:18.183Z,14.89
2018-11-06T16:21:32.367Z,14.92
2018-11-06T16:22:46.415Z,14.93
2018-11-06T16:24:00.767Z,14.92
2018-11-06T16:25:15.371Z,14.85
2018-11-06T16:26:29.673Z,14.81
2018-11-06T16:27:43.362Z,14.85
2018-11-06T16:28:58.148Z,14.78
2018-11-06T16:30:12.422Z,14.85
2018-11-06T16:31:26.295Z,14.89
2018-11-06T16:32:40.303Z,14.71
2018-11-06T16:33:54.951Z,14.74
2018-11-06T16:35:08.594Z,14.7
2018-11-06T16:36:22.412Z,14.71
2018-11-06T16:37:36.465Z,14.71
2018-11-06T16:38:50.787Z,14.63
2018-11-06T16:40:05.070Z,14.61
2018-11-06T16:41:18.792Z,14.63